sensor_id;sensor_type;location;lat;lon;timestamp;temperature;humidity
13198;DHT22;6664;52.514;13.440;2023-04-15T00:00:29;8.50;74.80
13198;DHT22;6664;52.514;13.440;2023-04-15T00:03:15;8.60;75.40
13198;DHT22;6664;52.514;13.440;2023-04-15T00:06:02;8.60;75.90
13198;DHT22;6664;52.514;13.440;2023-04-15T00:08:48;8.60;76.30
13198;DHT22;6664;52.514;13.440;2023-04-15T00:11:34;8.60;74.90
13198;DHT22;6664;52.514;13.440;2023-04-15T00:14:20;8.50;73.00
13198;DHT22;6664;52.514;13.440;2023-04-15T00:17:08;8.60;74.20
13198;DHT22;6664;52.514;13.440;2023-04-15T00:19:58;8.60;74.80
13198;DHT22;6664;52.514;13.440;2023-04-15T00:22:44;8.50;73.20
13198;DHT22;6664;52.514;13.440;2023-04-15T00:25:33;8.50;73.80
13198;DHT22;6664;52.514;13.440;2023-04-15T00:28:18;8.50;74.20
13198;DHT22;6664;52.514;13.440;2023-04-15T00:31:04;8.50;73.50
13198;DHT22;6664;52.514;13.440;2023-04-15T00:33:50;8.50;74.00
13198;DHT22;6664;52.514;13.440;2023-04-15T00:36:36;8.50;72.70
13198;DHT22;6664;52.514;13.440;2023-04-15T00:39:24;8.50;73.90
13198;DHT22;6664;52.514;13.440;2023-04-15T00:42:09;8.60;73.80
13198;DHT22;6664;52.514;13.440;2023-04-15T00:44:55;8.60;73.20
13198;DHT22;6664;52.514;13.440;2023-04-15T00:47:42;8.60;72.40
13198;DHT22;6664;52.514;13.440;2023-04-15T00:50:28;8.60;72.50
13198;DHT22;6664;52.514;13.440;2023-04-15T00:53:13;8.60;73.40
13198;DHT22;6664;52.514;13.440;2023-04-15T00:55:59;8.60;72.10
13198;DHT22;6664;52.514;13.440;2023-04-15T00:58:44;8.60;71.70
13198;DHT22;6664;52.514;13.440;2023-04-15T01:01:30;8.60;71.20
13198;DHT22;6664;52.514;13.440;2023-04-15T01:04:17;8.60;71.40
13198;DHT22;6664;52.514;13.440;2023-04-15T01:07:03;8.60;70.50
13198;DHT22;6664;52.514;13.440;2023-04-15T01:09:52;8.60;71.50
13198;DHT22;6664;52.514;13.440;2023-04-15T01:12:38;8.60;70.30
13198;DHT22;6664;52.514;13.440;2023-04-15T01:15:24;8.60;70.10
13198;DHT22;6664;52.514;13.440;2023-04-15T01:18:10;8.60;69.60
13198;DHT22;6664;52.514;13.440;2023-04-15T01:20:56;8.60;70.40
13198;DHT22;6664;52.514;13.440;2023-04-15T01:23:48;8.60;69.70
13198;DHT22;6664;52.514;13.440;2023-04-15T01:26:38;8.60;69.30
13198;DHT22;6664;52.514;13.440;2023-04-15T01:29:28;8.60;69.30
13198;DHT22;6664;52.514;13.440;2023-04-15T01:32:14;8.60;69.60
13198;DHT22;6664;52.514;13.440;2023-04-15T01:34:59;8.60;69.00
13198;DHT22;6664;52.514;13.440;2023-04-15T01:37:45;8.60;68.60
13198;DHT22;6664;52.514;13.440;2023-04-15T01:40:32;8.60;68.20
13198;DHT22;6664;52.514;13.440;2023-04-15T01:43:20;8.60;67.80
13198;DHT22;6664;52.514;13.440;2023-04-15T01:46:06;8.60;68.00
13198;DHT22;6664;52.514;13.440;2023-04-15T01:48:52;8.60;68.50
13198;DHT22;6664;52.514;13.440;2023-04-15T01:51:38;8.70;68.70
13198;DHT22;6664;52.514;13.440;2023-04-15T01:54:23;8.60;67.80
13198;DHT22;6664;52.514;13.440;2023-04-15T01:57:12;8.60;67.30
13198;DHT22;6664;52.514;13.440;2023-04-15T01:59:59;8.60;67.10
13198;DHT22;6664;52.514;13.440;2023-04-15T02:02:45;8.60;67.20
13198;DHT22;6664;52.514;13.440;2023-04-15T02:05:31;8.50;66.80
13198;DHT22;6664;52.514;13.440;2023-04-15T02:08:18;8.60;67.30
13198;DHT22;6664;52.514;13.440;2023-04-15T02:11:03;8.60;67.40
13198;DHT22;6664;52.514;13.440;2023-04-15T02:13:51;8.60;66.90
13198;DHT22;6664;52.514;13.440;2023-04-15T02:16:37;8.60;67.00
13198;DHT22;6664;52.514;13.440;2023-04-15T02:19:22;8.60;67.40
13198;DHT22;6664;52.514;13.440;2023-04-15T02:22:08;8.60;66.50
13198;DHT22;6664;52.514;13.440;2023-04-15T02:24:55;8.60;66.90
13198;DHT22;6664;52.514;13.440;2023-04-15T02:27:41;8.60;66.50
13198;DHT22;6664;52.514;13.440;2023-04-15T02:30:29;8.60;66.00
13198;DHT22;6664;52.514;13.440;2023-04-15T02:33:15;8.50;65.80
13198;DHT22;6664;52.514;13.440;2023-04-15T02:36:00;8.50;66.80
13198;DHT22;6664;52.514;13.440;2023-04-15T02:38:46;8.50;66.80
13198;DHT22;6664;52.514;13.440;2023-04-15T02:41:33;8.50;66.90
13198;DHT22;6664;52.514;13.440;2023-04-15T02:44:19;8.50;67.20
13198;DHT22;6664;52.514;13.440;2023-04-15T02:47:04;8.50;67.20
13198;DHT22;6664;52.514;13.440;2023-04-15T02:49:51;8.50;67.00
13198;DHT22;6664;52.514;13.440;2023-04-15T02:52:41;8.60;66.60
13198;DHT22;6664;52.514;13.440;2023-04-15T02:55:27;8.60;66.60
13198;DHT22;6664;52.514;13.440;2023-04-15T02:58:13;8.60;66.90
13198;DHT22;6664;52.514;13.440;2023-04-15T03:01:01;8.60;66.40
13198;DHT22;6664;52.514;13.440;2023-04-15T03:03:49;8.60;67.10
13198;DHT22;6664;52.514;13.440;2023-04-15T03:06:35;8.60;65.20
13198;DHT22;6664;52.514;13.440;2023-04-15T03:09:20;8.70;65.50
13198;DHT22;6664;52.514;13.440;2023-04-15T03:12:08;8.70;64.80
13198;DHT22;6664;52.514;13.440;2023-04-15T03:14:54;8.70;63.70
13198;DHT22;6664;52.514;13.440;2023-04-15T03:17:40;8.80;64.80
13198;DHT22;6664;52.514;13.440;2023-04-15T03:20:28;8.70;63.80
13198;DHT22;6664;52.514;13.440;2023-04-15T03:23:14;8.80;63.80
13198;DHT22;6664;52.514;13.440;2023-04-15T03:26:05;8.80;63.60
13198;DHT22;6664;52.514;13.440;2023-04-15T03:28:50;8.80;63.10
13198;DHT22;6664;52.514;13.440;2023-04-15T03:31:36;8.90;62.80
13198;DHT22;6664;52.514;13.440;2023-04-15T03:34:21;8.90;62.50
13198;DHT22;6664;52.514;13.440;2023-04-15T03:37:07;8.90;61.90
13198;DHT22;6664;52.514;13.440;2023-04-15T03:39:54;8.90;62.10
13198;DHT22;6664;52.514;13.440;2023-04-15T03:42:40;8.90;62.00
13198;DHT22;6664;52.514;13.440;2023-04-15T03:45:26;8.90;61.00
13198;DHT22;6664;52.514;13.440;2023-04-15T03:48:13;9.00;61.90
13198;DHT22;6664;52.514;13.440;2023-04-15T03:51:02;8.90;61.00
13198;DHT22;6664;52.514;13.440;2023-04-15T03:53:48;9.00;61.20
13198;DHT22;6664;52.514;13.440;2023-04-15T03:56:33;9.00;60.80
13198;DHT22;6664;52.514;13.440;2023-04-15T03:59:18;9.00;61.00
13198;DHT22;6664;52.514;13.440;2023-04-15T04:02:04;9.10;60.90
13198;DHT22;6664;52.514;13.440;2023-04-15T04:04:52;9.10;60.60
13198;DHT22;6664;52.514;13.440;2023-04-15T04:07:38;9.10;59.40
13198;DHT22;6664;52.514;13.440;2023-04-15T04:10:23;9.10;59.80
13198;DHT22;6664;52.514;13.440;2023-04-15T04:13:09;9.10;60.10
13198;DHT22;6664;52.514;13.440;2023-04-15T04:15:56;9.10;59.10
13198;DHT22;6664;52.514;13.440;2023-04-15T04:18:42;9.10;59.70
13198;DHT22;6664;52.514;13.440;2023-04-15T04:21:30;9.10;59.70
13198;DHT22;6664;52.514;13.440;2023-04-15T04:24:18;9.10;59.60
13198;DHT22;6664;52.514;13.440;2023-04-15T04:27:06;9.10;59.30
13198;DHT22;6664;52.514;13.440;2023-04-15T04:29:51;9.20;59.40
13198;DHT22;6664;52.514;13.440;2023-04-15T04:32:36;9.20;59.20
13198;DHT22;6664;52.514;13.440;2023-04-15T04:35:22;9.20;58.50
13198;DHT22;6664;52.514;13.440;2023-04-15T04:38:07;9.20;58.60
13198;DHT22;6664;52.514;13.440;2023-04-15T04:40:53;9.30;58.60
13198;DHT22;6664;52.514;13.440;2023-04-15T04:43:40;9.30;58.10
13198;DHT22;6664;52.514;13.440;2023-04-15T04:46:25;9.30;57.90
13198;DHT22;6664;52.514;13.440;2023-04-15T04:49:11;9.20;57.30
13198;DHT22;6664;52.514;13.440;2023-04-15T04:51:56;9.20;57.60
13198;DHT22;6664;52.514;13.440;2023-04-15T04:54:42;9.30;57.60
13198;DHT22;6664;52.514;13.440;2023-04-15T04:57:27;9.40;57.30
13198;DHT22;6664;52.514;13.440;2023-04-15T05:00:16;9.40;57.10
13198;DHT22;6664;52.514;13.440;2023-04-15T05:03:02;9.50;57.30
13198;DHT22;6664;52.514;13.440;2023-04-15T05:05:48;9.50;56.20
13198;DHT22;6664;52.514;13.440;2023-04-15T05:08:33;9.50;56.10
13198;DHT22;6664;52.514;13.440;2023-04-15T05:11:19;9.60;55.50
13198;DHT22;6664;52.514;13.440;2023-04-15T05:14:05;9.60;55.50
13198;DHT22;6664;52.514;13.440;2023-04-15T05:16:51;9.60;54.70
13198;DHT22;6664;52.514;13.440;2023-04-15T05:19:37;9.60;55.00
13198;DHT22;6664;52.514;13.440;2023-04-15T05:22:22;9.70;54.50
13198;DHT22;6664;52.514;13.440;2023-04-15T05:25:10;9.70;53.50
13198;DHT22;6664;52.514;13.440;2023-04-15T05:27:58;9.70;53.80
13198;DHT22;6664;52.514;13.440;2023-04-15T05:30:44;9.80;53.40
13198;DHT22;6664;52.514;13.440;2023-04-15T05:36:19;9.90;52.40
13198;DHT22;6664;52.514;13.440;2023-04-15T05:39:05;9.90;52.30
13198;DHT22;6664;52.514;13.440;2023-04-15T05:41:51;10.00;50.40
13198;DHT22;6664;52.514;13.440;2023-04-15T05:44:37;10.00;50.00
13198;DHT22;6664;52.514;13.440;2023-04-15T05:47:22;10.10;50.00
13198;DHT22;6664;52.514;13.440;2023-04-15T05:50:08;10.10;49.20
13198;DHT22;6664;52.514;13.440;2023-04-15T05:52:54;10.10;49.20
13198;DHT22;6664;52.514;13.440;2023-04-15T05:55:40;10.10;48.50
13198;DHT22;6664;52.514;13.440;2023-04-15T05:58:26;10.20;48.60
13198;DHT22;6664;52.514;13.440;2023-04-15T06:01:11;10.30;48.10
13198;DHT22;6664;52.514;13.440;2023-04-15T06:03:56;10.40;48.20
13198;DHT22;6664;52.514;13.440;2023-04-15T06:06:42;10.60;47.10
13198;DHT22;6664;52.514;13.440;2023-04-15T06:09:27;10.70;46.80
13198;DHT22;6664;52.514;13.440;2023-04-15T06:12:13;10.80;45.40
13198;DHT22;6664;52.514;13.440;2023-04-15T06:14:58;10.80;45.00
13198;DHT22;6664;52.514;13.440;2023-04-15T06:17:44;10.80;44.70
13198;DHT22;6664;52.514;13.440;2023-04-15T06:20:30;10.80;44.10
13198;DHT22;6664;52.514;13.440;2023-04-15T06:23:16;10.90;43.40
13198;DHT22;6664;52.514;13.440;2023-04-15T06:26:02;11.00;42.40
13198;DHT22;6664;52.514;13.440;2023-04-15T06:28:48;11.10;42.30
13198;DHT22;6664;52.514;13.440;2023-04-15T06:31:33;11.00;42.20
13198;DHT22;6664;52.514;13.440;2023-04-15T06:34:19;11.20;41.20
13198;DHT22;6664;52.514;13.440;2023-04-15T06:37:04;11.30;40.80
13198;DHT22;6664;52.514;13.440;2023-04-15T06:39:50;11.50;40.40
13198;DHT22;6664;52.514;13.440;2023-04-15T06:42:36;11.40;38.10
13198;DHT22;6664;52.514;13.440;2023-04-15T06:45:22;11.50;38.40
13198;DHT22;6664;52.514;13.440;2023-04-15T06:48:08;11.60;38.40
13198;DHT22;6664;52.514;13.440;2023-04-15T06:50:56;11.70;37.50
13198;DHT22;6664;52.514;13.440;2023-04-15T06:53:42;11.60;36.90
13198;DHT22;6664;52.514;13.440;2023-04-15T06:56:28;11.70;37.30
13198;DHT22;6664;52.514;13.440;2023-04-15T06:59:16;11.80;36.30
13198;DHT22;6664;52.514;13.440;2023-04-15T07:02:02;11.80;35.50
13198;DHT22;6664;52.514;13.440;2023-04-15T07:04:48;12.00;34.90
13198;DHT22;6664;52.514;13.440;2023-04-15T07:07:33;11.90;34.40
13198;DHT22;6664;52.514;13.440;2023-04-15T07:10:22;11.90;34.10
13198;DHT22;6664;52.514;13.440;2023-04-15T07:13:09;12.10;34.10
13198;DHT22;6664;52.514;13.440;2023-04-15T07:15:55;12.10;33.50
13198;DHT22;6664;52.514;13.440;2023-04-15T07:18:40;12.20;33.50
13198;DHT22;6664;52.514;13.440;2023-04-15T07:21:26;12.30;32.60
13198;DHT22;6664;52.514;13.440;2023-04-15T07:24:12;12.20;32.80
13198;DHT22;6664;52.514;13.440;2023-04-15T07:27:01;12.40;32.70
13198;DHT22;6664;52.514;13.440;2023-04-15T07:29:48;12.50;31.80
13198;DHT22;6664;52.514;13.440;2023-04-15T07:32:36;12.50;31.90
13198;DHT22;6664;52.514;13.440;2023-04-15T07:35:22;12.20;31.30
13198;DHT22;6664;52.514;13.440;2023-04-15T07:38:07;12.20;31.40
13198;DHT22;6664;52.514;13.440;2023-04-15T07:40:53;12.30;32.40
13198;DHT22;6664;52.514;13.440;2023-04-15T07:43:38;12.20;32.50
13198;DHT22;6664;52.514;13.440;2023-04-15T07:46:30;12.00;31.80
13198;DHT22;6664;52.514;13.440;2023-04-15T07:49:16;12.10;32.30
13198;DHT22;6664;52.514;13.440;2023-04-15T07:52:03;11.90;32.30
13198;DHT22;6664;52.514;13.440;2023-04-15T07:54:51;11.90;32.50
13198;DHT22;6664;52.514;13.440;2023-04-15T07:57:38;11.80;32.90
13198;DHT22;6664;52.514;13.440;2023-04-15T08:00:24;11.80;32.40
13198;DHT22;6664;52.514;13.440;2023-04-15T08:03:14;11.90;32.90
13198;DHT22;6664;52.514;13.440;2023-04-15T08:06:01;12.00;32.80
13198;DHT22;6664;52.514;13.440;2023-04-15T08:08:46;12.00;32.50
13198;DHT22;6664;52.514;13.440;2023-04-15T08:11:32;12.10;32.30
13198;DHT22;6664;52.514;13.440;2023-04-15T08:14:20;12.20;31.60
13198;DHT22;6664;52.514;13.440;2023-04-15T08:17:06;12.20;31.40
13198;DHT22;6664;52.514;13.440;2023-04-15T08:19:52;12.10;31.20
13198;DHT22;6664;52.514;13.440;2023-04-15T08:22:38;11.90;31.50
13198;DHT22;6664;52.514;13.440;2023-04-15T08:25:27;11.70;32.00
13198;DHT22;6664;52.514;13.440;2023-04-15T08:28:12;11.60;32.70
13198;DHT22;6664;52.514;13.440;2023-04-15T08:31:00;11.50;33.00
13198;DHT22;6664;52.514;13.440;2023-04-15T08:33:48;11.60;34.00
13198;DHT22;6664;52.514;13.440;2023-04-15T08:36:36;11.70;33.10
13198;DHT22;6664;52.514;13.440;2023-04-15T08:39:21;11.80;33.70
13198;DHT22;6664;52.514;13.440;2023-04-15T08:42:16;11.80;33.00
13198;DHT22;6664;52.514;13.440;2023-04-15T08:45:04;12.00;32.30
13198;DHT22;6664;52.514;13.440;2023-04-15T08:47:52;12.10;33.00
13198;DHT22;6664;52.514;13.440;2023-04-15T08:50:41;12.10;32.50
13198;DHT22;6664;52.514;13.440;2023-04-15T08:53:28;12.10;32.20
13198;DHT22;6664;52.514;13.440;2023-04-15T08:56:15;12.20;32.40
13198;DHT22;6664;52.514;13.440;2023-04-15T08:59:01;12.00;32.30
13198;DHT22;6664;52.514;13.440;2023-04-15T09:01:49;11.90;32.20
13198;DHT22;6664;52.514;13.440;2023-04-15T09:04:39;12.10;32.40
13198;DHT22;6664;52.514;13.440;2023-04-15T09:07:25;12.20;32.50
13198;DHT22;6664;52.514;13.440;2023-04-15T09:10:11;12.20;32.70
13198;DHT22;6664;52.514;13.440;2023-04-15T09:12:57;12.10;32.30
13198;DHT22;6664;52.514;13.440;2023-04-15T09:15:48;12.10;32.40
13198;DHT22;6664;52.514;13.440;2023-04-15T09:18:35;12.10;32.40
13198;DHT22;6664;52.514;13.440;2023-04-15T09:21:23;12.20;32.40
13198;DHT22;6664;52.514;13.440;2023-04-15T09:24:09;12.30;31.80
13198;DHT22;6664;52.514;13.440;2023-04-15T09:26:57;12.30;32.30
13198;DHT22;6664;52.514;13.440;2023-04-15T09:29:43;12.30;32.40
13198;DHT22;6664;52.514;13.440;2023-04-15T09:32:50;12.30;31.40
13198;DHT22;6664;52.514;13.440;2023-04-15T09:35:38;12.30;31.60
13198;DHT22;6664;52.514;13.440;2023-04-15T09:38:24;12.30;31.30
13198;DHT22;6664;52.514;13.440;2023-04-15T09:41:16;12.00;32.40
13198;DHT22;6664;52.514;13.440;2023-04-15T09:44:05;12.00;32.60
13198;DHT22;6664;52.514;13.440;2023-04-15T09:46:51;12.10;33.20
13198;DHT22;6664;52.514;13.440;2023-04-15T09:49:36;12.10;33.00
13198;DHT22;6664;52.514;13.440;2023-04-15T09:52:22;11.90;33.90
13198;DHT22;6664;52.514;13.440;2023-04-15T09:55:07;12.00;34.40
13198;DHT22;6664;52.514;13.440;2023-04-15T09:57:52;12.00;34.20
13198;DHT22;6664;52.514;13.440;2023-04-15T10:00:38;11.80;35.10
13198;DHT22;6664;52.514;13.440;2023-04-15T10:03:30;11.90;34.40
13198;DHT22;6664;52.514;13.440;2023-04-15T10:06:22;11.80;34.60
13198;DHT22;6664;52.514;13.440;2023-04-15T10:09:08;11.90;34.90
13198;DHT22;6664;52.514;13.440;2023-04-15T10:11:53;11.90;34.90
13198;DHT22;6664;52.514;13.440;2023-04-15T10:14:40;11.90;35.90
13198;DHT22;6664;52.514;13.440;2023-04-15T10:17:27;11.80;36.00
13198;DHT22;6664;52.514;13.440;2023-04-15T10:20:16;11.90;36.30
13198;DHT22;6664;52.514;13.440;2023-04-15T10:23:03;12.00;37.20
13198;DHT22;6664;52.514;13.440;2023-04-15T10:25:56;12.10;36.70
13198;DHT22;6664;52.514;13.440;2023-04-15T10:28:43;12.20;36.50
13198;DHT22;6664;52.514;13.440;2023-04-15T10:31:30;12.00;36.00
13198;DHT22;6664;52.514;13.440;2023-04-15T10:34:16;12.10;36.40
13198;DHT22;6664;52.514;13.440;2023-04-15T10:37:03;12.10;36.80
13198;DHT22;6664;52.514;13.440;2023-04-15T10:39:49;12.30;36.10
13198;DHT22;6664;52.514;13.440;2023-04-15T10:42:35;12.30;36.50
13198;DHT22;6664;52.514;13.440;2023-04-15T10:45:30;12.40;36.00
13198;DHT22;6664;52.514;13.440;2023-04-15T10:48:17;12.50;36.30
13198;DHT22;6664;52.514;13.440;2023-04-15T10:51:02;12.60;34.50
13198;DHT22;6664;52.514;13.440;2023-04-15T10:53:49;12.70;35.10
13198;DHT22;6664;52.514;13.440;2023-04-15T10:56:35;12.60;33.60
13198;DHT22;6664;52.514;13.440;2023-04-15T10:59:21;12.50;33.80
13198;DHT22;6664;52.514;13.440;2023-04-15T11:02:12;12.50;35.90
13198;DHT22;6664;52.514;13.440;2023-04-15T11:05:01;12.40;35.20
13198;DHT22;6664;52.514;13.440;2023-04-15T11:07:49;12.40;35.90
13198;DHT22;6664;52.514;13.440;2023-04-15T11:13:25;12.10;36.00
13198;DHT22;6664;52.514;13.440;2023-04-15T11:16:12;11.90;36.30
13198;DHT22;6664;52.514;13.440;2023-04-15T11:18:58;11.90;37.60
13198;DHT22;6664;52.514;13.440;2023-04-15T11:21:44;11.90;37.60
13198;DHT22;6664;52.514;13.440;2023-04-15T11:24:29;11.90;37.80
13198;DHT22;6664;52.514;13.440;2023-04-15T11:27:22;11.90;37.70
13198;DHT22;6664;52.514;13.440;2023-04-15T11:30:18;11.80;38.30
13198;DHT22;6664;52.514;13.440;2023-04-15T11:33:08;11.80;37.80
13198;DHT22;6664;52.514;13.440;2023-04-15T11:35:53;11.90;37.70
13198;DHT22;6664;52.514;13.440;2023-04-15T11:38:43;12.00;38.10
13198;DHT22;6664;52.514;13.440;2023-04-15T11:41:31;12.10;37.90
13198;DHT22;6664;52.514;13.440;2023-04-15T11:44:17;12.00;37.80
13198;DHT22;6664;52.514;13.440;2023-04-15T11:47:23;12.10;37.80
13198;DHT22;6664;52.514;13.440;2023-04-15T11:50:21;12.10;37.80
13198;DHT22;6664;52.514;13.440;2023-04-15T11:53:12;12.10;37.90
13198;DHT22;6664;52.514;13.440;2023-04-15T11:55:57;12.00;37.70
13198;DHT22;6664;52.514;13.440;2023-04-15T11:58:43;12.00;38.40
13198;DHT22;6664;52.514;13.440;2023-04-15T12:01:35;12.00;39.10
13198;DHT22;6664;52.514;13.440;2023-04-15T12:04:23;12.00;39.20
13198;DHT22;6664;52.514;13.440;2023-04-15T12:07:10;12.00;39.00
13198;DHT22;6664;52.514;13.440;2023-04-15T12:09:57;12.00;38.50
13198;DHT22;6664;52.514;13.440;2023-04-15T12:12:43;12.10;39.40
13198;DHT22;6664;52.514;13.440;2023-04-15T12:15:37;12.10;40.60
13198;DHT22;6664;52.514;13.440;2023-04-15T12:18:26;12.40;42.70
13198;DHT22;6664;52.514;13.440;2023-04-15T12:21:12;12.60;41.40
13198;DHT22;6664;52.514;13.440;2023-04-15T12:24:01;12.70;40.80
13198;DHT22;6664;52.514;13.440;2023-04-15T12:26:55;12.80;39.00
13198;DHT22;6664;52.514;13.440;2023-04-15T12:29:42;12.70;38.40
13198;DHT22;6664;52.514;13.440;2023-04-15T12:32:28;12.90;37.00
13198;DHT22;6664;52.514;13.440;2023-04-15T12:35:14;13.20;36.00
13198;DHT22;6664;52.514;13.440;2023-04-15T12:38:02;13.00;34.60
13198;DHT22;6664;52.514;13.440;2023-04-15T12:40:49;13.30;35.50
13198;DHT22;6664;52.514;13.440;2023-04-15T12:43:35;13.20;34.50
13198;DHT22;6664;52.514;13.440;2023-04-15T12:46:21;13.10;34.40
13198;DHT22;6664;52.514;13.440;2023-04-15T12:49:07;13.40;35.20
13198;DHT22;6664;52.514;13.440;2023-04-15T12:51:55;13.60;35.40
13198;DHT22;6664;52.514;13.440;2023-04-15T12:54:43;13.20;34.90
13198;DHT22;6664;52.514;13.440;2023-04-15T12:57:28;13.00;36.00
13198;DHT22;6664;52.514;13.440;2023-04-15T13:00:14;12.80;35.50
13198;DHT22;6664;52.514;13.440;2023-04-15T13:02:59;12.50;36.90
13198;DHT22;6664;52.514;13.440;2023-04-15T13:05:45;12.40;36.60
13198;DHT22;6664;52.514;13.440;2023-04-15T13:08:30;12.50;37.40
13198;DHT22;6664;52.514;13.440;2023-04-15T13:11:19;12.40;37.20
13198;DHT22;6664;52.514;13.440;2023-04-15T13:14:08;12.30;37.50
13198;DHT22;6664;52.514;13.440;2023-04-15T13:16:55;12.30;38.00
13198;DHT22;6664;52.514;13.440;2023-04-15T13:19:41;12.20;37.90
13198;DHT22;6664;52.514;13.440;2023-04-15T13:22:26;12.20;38.10
13198;DHT22;6664;52.514;13.440;2023-04-15T13:25:12;12.10;39.00
13198;DHT22;6664;52.514;13.440;2023-04-15T13:27:58;12.10;38.90
13198;DHT22;6664;52.514;13.440;2023-04-15T13:30:45;12.30;39.10
13198;DHT22;6664;52.514;13.440;2023-04-15T13:33:32;12.60;38.20
13198;DHT22;6664;52.514;13.440;2023-04-15T13:36:18;12.80;37.50
13198;DHT22;6664;52.514;13.440;2023-04-15T13:39:06;12.70;36.20
13198;DHT22;6664;52.514;13.440;2023-04-15T13:41:53;12.60;36.20
13198;DHT22;6664;52.514;13.440;2023-04-15T13:44:41;12.50;37.10
13198;DHT22;6664;52.514;13.440;2023-04-15T13:47:27;12.20;38.70
13198;DHT22;6664;52.514;13.440;2023-04-15T13:50:14;12.00;38.70
13198;DHT22;6664;52.514;13.440;2023-04-15T13:53:00;12.10;39.50
13198;DHT22;6664;52.514;13.440;2023-04-15T13:55:45;12.00;40.10
13198;DHT22;6664;52.514;13.440;2023-04-15T13:58:31;12.00;39.80
13198;DHT22;6664;52.514;13.440;2023-04-15T14:01:17;12.10;40.00
13198;DHT22;6664;52.514;13.440;2023-04-15T14:04:05;12.00;40.30
13198;DHT22;6664;52.514;13.440;2023-04-15T14:06:51;11.90;39.80
13198;DHT22;6664;52.514;13.440;2023-04-15T14:09:36;11.90;40.10
13198;DHT22;6664;52.514;13.440;2023-04-15T14:12:27;11.90;41.10
13198;DHT22;6664;52.514;13.440;2023-04-15T14:15:12;12.00;40.70
13198;DHT22;6664;52.514;13.440;2023-04-15T14:18:00;12.10;40.50
13198;DHT22;6664;52.514;13.440;2023-04-15T14:20:48;12.10;40.20
13198;DHT22;6664;52.514;13.440;2023-04-15T14:23:33;12.10;40.30
13198;DHT22;6664;52.514;13.440;2023-04-15T14:26:19;12.10;40.30
13198;DHT22;6664;52.514;13.440;2023-04-15T14:29:04;12.10;40.80
13198;DHT22;6664;52.514;13.440;2023-04-15T14:31:50;12.00;41.30
13198;DHT22;6664;52.514;13.440;2023-04-15T14:34:58;11.80;42.00
13198;DHT22;6664;52.514;13.440;2023-04-15T14:37:45;11.70;43.50
13198;DHT22;6664;52.514;13.440;2023-04-15T14:40:32;11.70;42.80
13198;DHT22;6664;52.514;13.440;2023-04-15T14:43:17;11.80;43.00
13198;DHT22;6664;52.514;13.440;2023-04-15T14:46:03;11.70;42.80
13198;DHT22;6664;52.514;13.440;2023-04-15T14:48:49;11.60;43.80
13198;DHT22;6664;52.514;13.440;2023-04-15T14:51:37;11.70;44.40
13198;DHT22;6664;52.514;13.440;2023-04-15T14:54:25;11.60;44.00
13198;DHT22;6664;52.514;13.440;2023-04-15T14:57:13;11.60;43.60
13198;DHT22;6664;52.514;13.440;2023-04-15T15:00:00;11.50;44.40
13198;DHT22;6664;52.514;13.440;2023-04-15T15:02:45;11.50;44.90
13198;DHT22;6664;52.514;13.440;2023-04-15T15:05:34;11.50;45.20
13198;DHT22;6664;52.514;13.440;2023-04-15T15:08:23;11.30;45.30
13198;DHT22;6664;52.514;13.440;2023-04-15T15:11:08;11.40;46.00
13198;DHT22;6664;52.514;13.440;2023-04-15T15:13:54;11.30;45.70
13198;DHT22;6664;52.514;13.440;2023-04-15T15:16:43;11.40;45.80
13198;DHT22;6664;52.514;13.440;2023-04-15T15:19:30;11.30;45.80
13198;DHT22;6664;52.514;13.440;2023-04-15T15:22:16;11.30;46.50
13198;DHT22;6664;52.514;13.440;2023-04-15T15:25:05;11.40;46.20
13198;DHT22;6664;52.514;13.440;2023-04-15T15:27:53;11.40;46.60
13198;DHT22;6664;52.514;13.440;2023-04-15T15:30:39;11.40;46.80
13198;DHT22;6664;52.514;13.440;2023-04-15T15:33:25;11.40;46.80
13198;DHT22;6664;52.514;13.440;2023-04-15T15:36:15;11.40;47.20
13198;DHT22;6664;52.514;13.440;2023-04-15T15:39:00;11.40;45.80
13198;DHT22;6664;52.514;13.440;2023-04-15T15:41:46;11.40;45.90
13198;DHT22;6664;52.514;13.440;2023-04-15T15:44:31;11.30;45.70
13198;DHT22;6664;52.514;13.440;2023-04-15T15:47:19;11.20;46.00
13198;DHT22;6664;52.514;13.440;2023-04-15T15:50:06;11.30;46.40
13198;DHT22;6664;52.514;13.440;2023-04-15T15:52:52;11.30;46.30
13198;DHT22;6664;52.514;13.440;2023-04-15T15:55:40;11.20;46.90
13198;DHT22;6664;52.514;13.440;2023-04-15T15:58:25;11.20;47.60
13198;DHT22;6664;52.514;13.440;2023-04-15T16:01:13;11.20;47.80
13198;DHT22;6664;52.514;13.440;2023-04-15T16:03:59;11.20;48.30
13198;DHT22;6664;52.514;13.440;2023-04-15T16:06:46;11.20;48.90
13198;DHT22;6664;52.514;13.440;2023-04-15T16:09:32;11.40;48.80
13198;DHT22;6664;52.514;13.440;2023-04-15T16:12:17;11.40;47.90
13198;DHT22;6664;52.514;13.440;2023-04-15T16:15:03;11.40;48.00
13198;DHT22;6664;52.514;13.440;2023-04-15T16:17:49;11.40;47.90
13198;DHT22;6664;52.514;13.440;2023-04-15T16:20:38;11.40;47.80
13198;DHT22;6664;52.514;13.440;2023-04-15T16:23:23;11.40;47.80
13198;DHT22;6664;52.514;13.440;2023-04-15T16:26:09;11.50;47.90
13198;DHT22;6664;52.514;13.440;2023-04-15T16:28:55;11.30;47.70
13198;DHT22;6664;52.514;13.440;2023-04-15T16:31:43;11.40;47.90
13198;DHT22;6664;52.514;13.440;2023-04-15T16:34:28;11.40;47.80
13198;DHT22;6664;52.514;13.440;2023-04-15T16:37:14;11.40;47.60
13198;DHT22;6664;52.514;13.440;2023-04-15T16:40:00;11.40;47.70
13198;DHT22;6664;52.514;13.440;2023-04-15T16:42:46;11.40;47.80
13198;DHT22;6664;52.514;13.440;2023-04-15T16:45:32;11.40;47.70
13198;DHT22;6664;52.514;13.440;2023-04-15T16:48:20;11.40;47.30
13198;DHT22;6664;52.514;13.440;2023-04-15T16:51:06;11.40;47.40
13198;DHT22;6664;52.514;13.440;2023-04-15T16:53:52;11.30;47.70
13198;DHT22;6664;52.514;13.440;2023-04-15T16:56:38;11.30;47.70
13198;DHT22;6664;52.514;13.440;2023-04-15T16:59:26;11.30;47.70
13198;DHT22;6664;52.514;13.440;2023-04-15T17:02:12;11.30;47.40
13198;DHT22;6664;52.514;13.440;2023-04-15T17:05:00;11.30;47.60
13198;DHT22;6664;52.514;13.440;2023-04-15T17:07:45;11.30;47.70
13198;DHT22;6664;52.514;13.440;2023-04-15T17:10:31;11.20;47.60
13198;DHT22;6664;52.514;13.440;2023-04-15T17:13:19;11.20;47.70
13198;DHT22;6664;52.514;13.440;2023-04-15T17:16:04;11.20;47.90
13198;DHT22;6664;52.514;13.440;2023-04-15T17:18:50;11.20;47.60
13198;DHT22;6664;52.514;13.440;2023-04-15T17:21:36;11.10;47.50
13198;DHT22;6664;52.514;13.440;2023-04-15T17:24:24;11.10;47.80
13198;DHT22;6664;52.514;13.440;2023-04-15T17:27:09;11.10;47.90
13198;DHT22;6664;52.514;13.440;2023-04-15T17:29:55;11.10;47.80
13198;DHT22;6664;52.514;13.440;2023-04-15T17:32:41;11.10;48.70
13198;DHT22;6664;52.514;13.440;2023-04-15T17:35:29;11.00;48.60
13198;DHT22;6664;52.514;13.440;2023-04-15T17:38:15;11.00;49.20
13198;DHT22;6664;52.514;13.440;2023-04-15T17:41:00;10.90;49.30
13198;DHT22;6664;52.514;13.440;2023-04-15T17:43:51;10.90;50.00